Time;durP1;ratioP1;P1;durP2;ratioP2;P2;SDS_P1;SDS_P2;PMS_P1;PMS_P2;Temp;Humidity;BMP_temperature;BMP_pressure;BME280_temperature;BME280_humidity;BME280_pressure;Samples;Min_cycle;Max_cycle;Signal;HPM_P1;HPM_P2
2022/12/28 00:02:16;;;;;;;14.70;9.20;;;;;;;;;;4991584;28;20046;-44
2022/12/28 00:04:42;;;;;;;11.35;8.43;;;;;;;;;;4991168;28;20478;-44
2022/12/28 00:07:08;;;;;;;11.63;7.75;;;;;;;;;;4990808;28;20065;-44
2022/12/28 00:09:33;;;;;;;10.52;8.10;;;;;;;;;;4992916;28;20018;-44
2022/12/28 00:11:58;;;;;;;13.70;7.43;;;;;;;;;;4992626;28;20096;-43
2022/12/28 00:14:24;;;;;;;11.60;7.82;;;;;;;;;;4991684;28;20030;-45
2022/12/28 00:16:49;;;;;;;16.85;7.05;;;;;;;;;;4991276;28;20042;-44
2022/12/28 00:19:15;;;;;;;12.88;7.40;;;;;;;;;;4989072;28;20185;-46
2022/12/28 00:21:42;;;;;;;10.00;7.32;;;;;;;;;;4985385;28;20375;-44
2022/12/28 00:24:17;;;;;;;11.57;7.05;;;;;;;;;;4991578;28;20038;-50
2022/12/28 00:26:42;;;;;;;11.90;7.45;;;;;;;;;;4989386;28;20080;-44
2022/12/28 00:29:08;;;;;;;11.20;6.97;;;;;;;;;;4989496;28;20551;-43
2022/12/28 00:31:33;;;;;;;12.15;7.38;;;;;;;;;;4991424;28;20040;-41
2022/12/28 00:33:59;;;;;;;10.05;7.15;;;;;;;;;;4989828;28;20029;-44
2022/12/28 00:36:24;;;;;;;11.23;7.13;;;;;;;;;;4989321;28;20541;-44
2022/12/28 00:38:50;;;;;;;9.38;7.05;;;;;;;;;;4991196;28;20038;-44
2022/12/28 00:41:16;;;;;;;10.35;7.35;;;;;;;;;;4990386;28;20038;-44
2022/12/28 00:43:41;;;;;;;10.80;7.25;;;;;;;;;;4989887;28;20047;-47
2022/12/28 00:46:07;;;;;;;8.30;6.70;;;;;;;;;;4990653;28;20026;-43
2022/12/28 00:48:32;;;;;;;8.25;6.80;;;;;;;;;;4989017;28;20045;-44
2022/12/28 00:51:06;;;;;;;8.88;6.45;;;;;;;;;;4991034;28;20037;-44
2022/12/28 00:53:31;;;;;;;7.30;6.22;;;;;;;;;;4987348;28;20730;-44
2022/12/28 00:56:11;;;;;;;11.57;6.05;;;;;;;;;;4987440;28;20050;-45
2022/12/28 00:58:37;;;;;;;9.05;6.60;;;;;;;;;;4991360;28;20434;-44
2022/12/28 01:01:04;;;;;;;10.95;6.47;;;;;;;;;;4989233;28;20031;-44
2022/12/28 01:03:29;;;;;;;6.22;5.53;;;;;;;;;;4986236;28;20042;-44
2022/12/28 01:05:54;;;;;;;10.43;6.60;;;;;;;;;;4990189;28;20485;-43
2022/12/28 01:08:20;;;;;;;7.97;6.07;;;;;;;;;;4987896;28;20041;-47
2022/12/28 01:10:45;;;;;;;11.00;6.55;;;;;;;;;;4990751;28;20034;-45
2022/12/28 01:13:11;;;;;;;12.13;6.53;;;;;;;;;;4989034;28;20035;-45
2022/12/28 01:15:37;;;;;;;10.68;7.18;;;;;;;;;;4991190;28;20042;-44
2022/12/28 01:18:02;;;;;;;9.95;6.25;;;;;;;;;;4988307;28;20039;-44
2022/12/28 01:20:28;;;;;;;9.38;7.25;;;;;;;;;;4989043;28;20182;-43
2022/12/28 01:22:54;;;;;;;7.68;5.68;;;;;;;;;;4988949;28;20050;-44
2022/12/28 01:25:19;;;;;;;9.38;5.43;;;;;;;;;;4989191;28;20054;-44
2022/12/28 01:27:44;;;;;;;10.32;6.05;;;;;;;;;;4991169;28;20042;-45
2022/12/28 01:30:12;;;;;;;7.32;5.72;;;;;;;;;;4990452;28;20498;-46
2022/12/28 01:32:37;;;;;;;7.80;6.00;;;;;;;;;;4990839;28;20453;-43
2022/12/28 01:35:03;;;;;;;6.80;5.68;;;;;;;;;;4988214;28;20034;-43
2022/12/28 01:37:29;;;;;;;8.70;5.78;;;;;;;;;;4988577;28;20042;-44
2022/12/28 01:39:54;;;;;;;10.35;6.00;;;;;;;;;;4989556;28;20030;-44
2022/12/28 01:42:19;;;;;;;8.77;6.53;;;;;;;;;;4989089;28;20034;-43
2022/12/28 01:44:47;;;;;;;6.47;5.18;;;;;;;;;;4990878;28;20177;-51
2022/12/28 01:47:17;;;;;;;8.45;5.75;;;;;;;;;;4988452;28;20031;-46
2022/12/28 01:49:49;;;;;;;9.27;5.68;;;;;;;;;;4987693;28;20029;-45
2022/12/28 01:52:24;;;;;;;12.05;5.28;;;;;;;;;;4985591;28;20038;-44
2022/12/28 01:54:54;;;;;;;8.45;5.13;;;;;;;;;;4986698;28;20440;-44
2022/12/28 01:57:23;;;;;;;7.82;5.50;;;;;;;;;;4989331;28;20042;-44
2022/12/28 01:59:59;;;;;;;8.25;5.43;;;;;;;;;;4988512;28;20116;-44
2022/12/28 02:02:25;;;;;;;5.78;5.18;;;;;;;;;;4988220;28;20038;-43
2022/12/28 02:04:50;;;;;;;9.45;5.63;;;;;;;;;;4989069;28;20034;-44
2022/12/28 02:07:25;;;;;;;8.70;5.55;;;;;;;;;;4988680;28;20077;-44
2022/12/28 02:09:51;;;;;;;7.05;5.13;;;;;;;;;;4985796;28;20034;-45
2022/12/28 02:12:17;;;;;;;8.63;5.70;;;;;;;;;;4987780;28;20042;-43
2022/12/28 02:14:43;;;;;;;8.25;6.20;;;;;;;;;;4984437;28;20040;-45
2022/12/28 02:17:11;;;;;;;7.78;5.72;;;;;;;;;;4991424;28;20096;-44
2022/12/28 02:19:44;;;;;;;10.07;6.03;;;;;;;;;;4986189;28;20022;-47
2022/12/28 02:22:21;;;;;;;6.30;4.85;;;;;;;;;;4987543;28;20045;-44
2022/12/28 02:24:55;;;;;;;8.18;4.72;;;;;;;;;;4987137;28;20541;-43
2022/12/28 02:27:33;;;;;;;10.50;6.55;;;;;;;;;;4985989;28;20539;-45
2022/12/28 02:30:12;;;;;;;9.52;6.45;;;;;;;;;;4988333;28;20049;-45
2022/12/28 02:33:15;;;;;;;9.35;6.20;;;;;;;;;;4986062;28;20042;-44
2022/12/28 02:35:52;;;;;;;7.40;5.70;;;;;;;;;;4985849;28;20129;-44
2022/12/28 02:38:27;;;;;;;9.52;5.65;;;;;;;;;;4987399;28;20042;-44
2022/12/28 02:41:00;;;;;;;8.98;6.13;;;;;;;;;;4986576;28;20054;-44
2022/12/28 02:43:25;;;;;;;12.73;7.40;;;;;;;;;;4984852;28;20035;-45
2022/12/28 02:51:55;;;;;;;9.77;6.90;;;;;;;;;;4991581;28;20070;-47
2022/12/28 02:57:34;;;;;;;13.55;8.05;;;;;;;;;;4989115;28;20653;-44
2022/12/28 03:00:05;;;;;;;14.18;8.05;;;;;;;;;;4989104;28;20360;-43
2022/12/28 03:02:55;;;;;;;15.18;6.68;;;;;;;;;;4991797;28;20053;-44
2022/12/28 03:08:54;;;;;;;11.13;6.65;;;;;;;;;;4990697;28;20058;-47
2022/12/28 03:11:31;;;;;;;10.48;6.38;;;;;;;;;;4946648;28;20039;-43
2022/12/28 03:14:09;;;;;;;9.38;7.18;;;;;;;;;;4945660;28;20066;-44
2022/12/28 03:33:19;;;;;;;12.70;7.70;;;;;;;;;;4948048;28;20536;-44
2022/12/28 03:35:51;;;;;;;12.15;7.75;;;;;;;;;;4947919;28;20133;-46
2022/12/28 03:38:26;;;;;;;19.58;7.88;;;;;;;;;;4948121;28;20491;-45
2022/12/28 03:41:00;;;;;;;14.15;8.25;;;;;;;;;;4947725;28;20035;-43
2022/12/28 03:43:41;;;;;;;11.43;7.28;;;;;;;;;;4945753;28;20066;-45
2022/12/28 03:46:23;;;;;;;12.60;7.20;;;;;;;;;;4946284;28;20070;-45
2022/12/28 03:48:50;;;;;;;12.93;7.32;;;;;;;;;;4976946;28;20545;-43
2022/12/28 03:51:20;;;;;;;12.18;7.45;;;;;;;;;;4990300;28;20027;-43
2022/12/28 03:53:47;;;;;;;12.48;7.28;;;;;;;;;;4991159;28;20038;-43
2022/12/28 03:56:26;;;;;;;12.70;7.70;;;;;;;;;;4991005;28;20487;-46
2022/12/28 03:58:52;;;;;;;12.30;7.60;;;;;;;;;;4990124;28;20532;-42
2022/12/28 04:01:18;;;;;;;11.68;6.60;;;;;;;;;;4991515;28;20030;-47
2022/12/28 04:03:43;;;;;;;15.65;7.75;;;;;;;;;;4992220;28;20416;-47
2022/12/28 04:06:15;;;;;;;13.57;8.13;;;;;;;;;;4991559;28;20434;-43
2022/12/28 04:08:41;;;;;;;11.35;7.82;;;;;;;;;;4989261;28;20048;-44
2022/12/28 04:11:07;;;;;;;10.23;7.32;;;;;;;;;;4988696;28;20368;-44
2022/12/28 04:13:32;;;;;;;11.02;7.22;;;;;;;;;;4992370;28;20045;-45
2022/12/28 04:16:04;;;;;;;13.13;7.50;;;;;;;;;;4991752;28;20034;-44
2022/12/28 04:18:31;;;;;;;10.40;7.28;;;;;;;;;;4988867;28;20054;-43
2022/12/28 04:20:56;;;;;;;11.60;6.47;;;;;;;;;;4992997;28;20121;-50
2022/12/28 04:23:21;;;;;;;9.55;6.45;;;;;;;;;;4991376;28;20566;-46
2022/12/28 04:26:00;;;;;;;12.20;6.32;;;;;;;;;;4990543;28;20995;-44
2022/12/28 04:28:26;;;;;;;10.50;6.47;;;;;;;;;;4990274;28;20065;-45
2022/12/28 04:30:51;;;;;;;9.60;6.35;;;;;;;;;;4991165;28;20361;-46
2022/12/28 04:33:17;;;;;;;9.82;6.28;;;;;;;;;;4991230;28;20046;-44
2022/12/28 04:35:42;;;;;;;9.00;5.57;;;;;;;;;;4990331;28;20034;-44
2022/12/28 04:38:08;;;;;;;7.63;5.35;;;;;;;;;;4989064;28;20468;-44
2022/12/28 04:40:33;;;;;;;9.82;5.38;;;;;;;;;;4989728;28;20033;-44
2022/12/28 04:42:58;;;;;;;5.20;4.70;;;;;;;;;;4988623;28;20038;-44
2022/12/28 04:45:24;;;;;;;8.77;4.88;;;;;;;;;;4990734;28;20046;-43
2022/12/28 04:47:49;;;;;;;8.20;4.60;;;;;;;;;;4991082;28;20046;-44
2022/12/28 04:50:14;;;;;;;8.10;5.07;;;;;;;;;;4989647;28;20494;-44
2022/12/28 04:52:40;;;;;;;6.20;4.68;;;;;;;;;;4991288;28;20038;-46
2022/12/28 04:55:06;;;;;;;7.63;4.50;;;;;;;;;;4989384;28;20065;-44
2022/12/28 04:57:31;;;;;;;6.55;4.68;;;;;;;;;;4991294;28;20038;-44
2022/12/28 04:59:56;;;;;;;6.57;4.07;;;;;;;;;;4989842;28;20038;-44
2022/12/28 05:02:22;;;;;;;4.30;3.90;;;;;;;;;;4989943;28;20415;-44
2022/12/28 05:04:47;;;;;;;5.88;4.05;;;;;;;;;;4989592;28;20030;-43
2022/12/28 05:07:12;;;;;;;6.72;4.28;;;;;;;;;;4987330;28;20495;-44
2022/12/28 05:09:38;;;;;;;5.65;4.30;;;;;;;;;;4988078;28;20058;-44
2022/12/28 05:12:03;;;;;;;9.63;4.50;;;;;;;;;;4987953;28;20046;-47
2022/12/28 05:14:29;;;;;;;5.60;4.15;;;;;;;;;;4992131;28;20105;-43
2022/12/28 05:16:54;;;;;;;5.30;4.78;;;;;;;;;;4987789;28;20048;-46
2022/12/28 05:19:19;;;;;;;7.00;4.25;;;;;;;;;;4991003;28;20029;-44
2022/12/28 05:21:45;;;;;;;5.38;4.30;;;;;;;;;;4989817;28;22563;-45
2022/12/28 05:24:10;;;;;;;5.72;4.03;;;;;;;;;;4990070;28;20105;-41
2022/12/28 05:26:36;;;;;;;4.38;3.85;;;;;;;;;;4988386;28;20113;-44
2022/12/28 05:29:01;;;;;;;5.00;3.88;;;;;;;;;;4989456;28;20054;-43
2022/12/28 05:31:27;;;;;;;4.00;3.60;;;;;;;;;;4988318;28;20487;-44
2022/12/28 05:33:53;;;;;;;6.00;3.67;;;;;;;;;;4990208;28;20031;-43
2022/12/28 05:36:22;;;;;;;5.82;3.90;;;;;;;;;;4988663;28;20130;-45
2022/12/28 05:38:47;;;;;;;6.40;4.38;;;;;;;;;;4989006;28;20407;-44
2022/12/28 05:41:19;;;;;;;5.35;3.83;;;;;;;;;;4987689;28;20030;-44
2022/12/28 05:43:45;;;;;;;7.85;4.53;;;;;;;;;;4986162;28;20197;-43
2022/12/28 05:46:18;;;;;;;8.77;4.32;;;;;;;;;;4989648;28;20172;-44
2022/12/28 05:48:44;;;;;;;12.85;4.38;;;;;;;;;;4988755;28;20039;-44
2022/12/28 05:51:12;;;;;;;7.68;4.10;;;;;;;;;;4989457;28;20491;-43
2022/12/28 05:53:38;;;;;;;12.50;3.53;;;;;;;;;;4989477;28;20043;-43
2022/12/28 05:56:11;;;;;;;5.78;3.65;;;;;;;;;;4986557;28;20038;-44
2022/12/28 05:58:36;;;;;;;;;;;;;;;;;;4990248;28;20035;-43
2022/12/28 06:01:04;;;;;;;4.07;3.53;;;;;;;;;;4988799;28;19925;-45
2022/12/28 06:03:29;;;;;;;6.40;3.40;;;;;;;;;;4987928;28;20046;-43
2022/12/28 06:05:54;;;;;;;6.40;3.13;;;;;;;;;;4989068;28;20045;-43
2022/12/28 06:08:20;;;;;;;6.18;3.42;;;;;;;;;;4988314;28;20049;-43
2022/12/28 06:10:45;;;;;;;5.18;3.30;;;;;;;;;;4988061;28;20042;-44
2022/12/28 06:13:10;;;;;;;4.22;3.30;;;;;;;;;;4989494;28;20031;-43
2022/12/28 06:15:36;;;;;;;4.90;3.35;;;;;;;;;;4987446;28;20104;-43
2022/12/28 06:18:01;;;;;;;4.97;3.10;;;;;;;;;;4987407;28;20038;-43
2022/12/28 06:20:27;;;;;;;3.05;2.72;;;;;;;;;;4984709;28;20479;-47
2022/12/28 06:22:52;;;;;;;4.65;3.40;;;;;;;;;;4988277;28;20045;-43
2022/12/28 06:25:17;;;;;;;4.25;2.92;;;;;;;;;;4989593;28;20069;-45
2022/12/28 06:27:43;;;;;;;6.43;3.05;;;;;;;;;;4988547;28;20530;-44
2022/12/28 06:30:09;;;;;;;4.63;3.17;;;;;;;;;;4987876;28;20034;-43
2022/12/28 06:32:34;;;;;;;6.70;2.97;;;;;;;;;;4987709;28;20042;-44
2022/12/28 06:35:01;;;;;;;5.63;3.28;;;;;;;;;;4989060;28;20023;-45
2022/12/28 06:37:26;;;;;;;6.38;3.38;;;;;;;;;;4987736;28;20124;-44
2022/12/28 06:39:52;;;;;;;4.78;3.03;;;;;;;;;;4988648;28;20034;-44
2022/12/28 06:42:17;;;;;;;3.80;3.30;;;;;;;;;;4987352;28;20035;-44
2022/12/28 06:44:42;;;;;;;3.30;2.97;;;;;;;;;;4989141;28;20392;-43
2022/12/28 06:47:08;;;;;;;5.45;3.13;;;;;;;;;;4985271;28;20061;-46
2022/12/28 06:49:33;;;;;;;5.30;2.95;;;;;;;;;;4988154;28;20030;-44
2022/12/28 06:51:58;;;;;;;4.30;3.10;;;;;;;;;;4987490;28;20053;-43
2022/12/28 06:54:24;;;;;;;2.75;2.55;;;;;;;;;;4990856;28;20033;-44
2022/12/28 06:56:49;;;;;;;4.68;3.20;;;;;;;;;;4987177;28;20486;-45
2022/12/28 06:59:14;;;;;;;2.92;2.63;;;;;;;;;;4988374;28;20046;-48
2022/12/28 07:01:43;;;;;;;2.63;2.40;;;;;;;;;;4989232;28;20077;-43
2022/12/28 07:04:09;;;;;;;2.80;2.47;;;;;;;;;;4986923;28;20081;-42
2022/12/28 07:06:40;;;;;;;3.28;2.92;;;;;;;;;;4988851;28;20730;-44
2022/12/28 07:09:09;;;;;;;5.53;3.03;;;;;;;;;;4990027;28;20035;-43
2022/12/28 07:11:35;;;;;;;3.85;2.92;;;;;;;;;;4989709;28;20046;-44
2022/12/28 07:14:01;;;;;;;4.20;2.85;;;;;;;;;;4986191;28;20037;-43
2022/12/28 07:16:28;;;;;;;4.40;2.60;;;;;;;;;;4986009;28;20063;-43
2022/12/28 07:18:54;;;;;;;4.32;2.95;;;;;;;;;;4985448;28;20088;-45
2022/12/28 07:21:25;;;;;;;3.17;2.83;;;;;;;;;;4988150;28;20045;-44
2022/12/28 07:23:52;;;;;;;3.33;2.78;;;;;;;;;;4985977;28;20046;-44
2022/12/28 07:26:23;;;;;;;6.60;2.90;;;;;;;;;;4988694;28;20034;-45
2022/12/28 07:28:50;;;;;;;2.97;2.33;;;;;;;;;;4987538;28;20034;-43
2022/12/28 07:31:22;;;;;;;4.40;2.60;;;;;;;;;;4989213;28;20100;-44
2022/12/28 07:33:48;;;;;;;2.30;2.08;;;;;;;;;;4990993;28;20050;-45
2022/12/28 07:36:17;;;;;;;4.10;2.60;;;;;;;;;;4992584;28;20034;-45
2022/12/28 07:38:43;;;;;;;3.53;2.40;;;;;;;;;;4991615;28;20046;-43
2022/12/28 07:41:14;;;;;;;3.30;2.67;;;;;;;;;;4989144;28;20054;-44
2022/12/28 07:43:39;;;;;;;4.47;2.72;;;;;;;;;;4990531;28;20035;-43
2022/12/28 07:46:10;;;;;;;2.88;2.63;;;;;;;;;;4992403;28;20041;-44
2022/12/28 07:48:37;;;;;;;3.85;2.88;;;;;;;;;;4987487;28;20918;-46
2022/12/28 07:51:09;;;;;;;3.83;3.28;;;;;;;;;;4993719;28;20542;-44
2022/12/28 07:53:35;;;;;;;3.45;2.42;;;;;;;;;;4990060;28;20045;-44
2022/12/28 07:56:01;;;;;;;2.80;2.60;;;;;;;;;;4992119;28;20097;-44
2022/12/28 07:58:26;;;;;;;2.60;2.40;;;;;;;;;;4986836;28;20034;-45
2022/12/28 08:00:52;;;;;;;2.60;2.40;;;;;;;;;;4988866;28;20027;-46
2022/12/28 08:03:17;;;;;;;3.38;2.58;;;;;;;;;;4987379;28;20042;-43
2022/12/28 08:05:43;;;;;;;3.35;2.25;;;;;;;;;;4991241;28;20038;-44
2022/12/28 08:08:08;;;;;;;2.80;2.03;;;;;;;;;;4985328;28;20085;-46
2022/12/28 08:10:34;;;;;;;2.47;2.05;;;;;;;;;;4990879;28;20082;-46
2022/12/28 08:13:00;;;;;;;4.05;2.10;;;;;;;;;;4989147;28;20053;-44
2022/12/28 08:15:25;;;;;;;6.97;2.80;;;;;;;;;;4982367;28;20110;-45
2022/12/28 08:17:52;;;;;;;4.63;3.28;;;;;;;;;;4990036;28;20109;-43
2022/12/28 08:20:18;;;;;;;2.92;2.63;;;;;;;;;;4992200;28;20027;-44
2022/12/28 08:22:43;;;;;;;4.63;2.75;;;;;;;;;;4989148;28;20031;-44
2022/12/28 08:25:08;;;;;;;2.50;2.30;;;;;;;;;;4989450;28;20034;-44
2022/12/28 08:27:34;;;;;;;2.65;2.45;;;;;;;;;;4988269;28;20129;-45
2022/12/28 08:29:59;;;;;;;3.35;3.05;;;;;;;;;;4988638;28;20026;-46
2022/12/28 08:32:25;;;;;;;6.13;2.80;;;;;;;;;;4985169;28;20053;-43
2022/12/28 08:34:50;;;;;;;2.80;2.60;;;;;;;;;;4986520;28;20081;-43
2022/12/28 08:37:15;;;;;;;4.18;3.05;;;;;;;;;;4985913;28;20034;-44
2022/12/28 08:39:41;;;;;;;4.28;2.97;;;;;;;;;;4990731;28;20118;-44
2022/12/28 08:42:06;;;;;;;7.85;4.03;;;;;;;;;;4990759;28;20093;-44
2022/12/28 08:44:31;;;;;;;6.80;3.80;;;;;;;;;;4988759;28;20505;-43
2022/12/28 08:46:57;;;;;;;8.60;3.90;;;;;;;;;;4990222;28;20049;-44
2022/12/28 08:49:22;;;;;;;4.38;3.38;;;;;;;;;;4989789;28;20109;-44
2022/12/28 08:51:48;;;;;;;7.57;3.20;;;;;;;;;;4987717;28;20057;-45
2022/12/28 08:54:13;;;;;;;4.78;2.80;;;;;;;;;;4990229;28;20037;-46
2022/12/28 08:56:41;;;;;;;5.20;3.20;;;;;;;;;;4990696;28;20085;-43
2022/12/28 08:59:07;;;;;;;5.85;2.95;;;;;;;;;;4989895;28;20034;-44
2022/12/28 09:01:38;;;;;;;11.50;3.20;;;;;;;;;;4987639;28;20022;-44
2022/12/28 09:04:03;;;;;;;3.22;2.60;;;;;;;;;;4991174;28;20546;-45
2022/12/28 09:06:31;;;;;;;3.28;2.47;;;;;;;;;;4990248;28;20030;-42
2022/12/28 09:08:58;;;;;;;3.30;2.42;;;;;;;;;;4990490;28;20475;-44
2022/12/28 09:11:25;;;;;;;2.92;2.42;;;;;;;;;;4990653;28;20058;-44
2022/12/28 09:13:50;;;;;;;5.70;2.33;;;;;;;;;;4987937;28;20043;-44
2022/12/28 09:16:18;;;;;;;3.60;2.10;;;;;;;;;;4990587;28;20452;-44
2022/12/28 09:18:45;;;;;;;3.08;2.10;;;;;;;;;;4989323;28;20042;-45
2022/12/28 09:21:13;;;;;;;3.50;2.38;;;;;;;;;;4989621;28;20039;-44
2022/12/28 09:23:39;;;;;;;4.05;2.40;;;;;;;;;;4989452;28;20068;-44
2022/12/28 09:26:10;;;;;;;3.58;2.10;;;;;;;;;;4989503;28;20073;-44
2022/12/28 09:28:36;;;;;;;2.63;2.22;;;;;;;;;;4984502;28;20125;-46
2022/12/28 09:31:04;;;;;;;2.20;2.00;;;;;;;;;;4986584;28;20034;-45
2022/12/28 09:36:15;;;;;;;5.35;2.03;;;;;;;;;;4987257;28;20115;-45
2022/12/28 09:38:40;;;;;;;2.60;2.10;;;;;;;;;;4990466;28;20042;-44
2022/12/28 09:41:25;;;;;;;3.05;2.00;;;;;;;;;;4987827;28;20512;-44
2022/12/28 09:44:03;;;;;;;8.50;2.40;;;;;;;;;;4987368;28;20038;-43
2022/12/28 09:46:32;;;;;;;2.47;2.30;;;;;;;;;;4989738;28;20128;-40
2022/12/28 09:49:01;;;;;;;5.20;2.65;;;;;;;;;;4988182;28;20045;-45
2022/12/28 09:51:37;;;;;;;2.47;2.22;;;;;;;;;;4989388;28;20043;-43
2022/12/28 09:54:03;;;;;;;3.35;2.13;;;;;;;;;;4986858;28;20042;-43
2022/12/28 09:56:35;;;;;;;2.33;2.10;;;;;;;;;;4988408;28;20181;-50
2022/12/28 09:59:03;;;;;;;4.60;2.47;;;;;;;;;;4985966;28;20046;-45
2022/12/28 10:01:29;;;;;;;4.32;2.00;;;;;;;;;;4990183;28;20030;-41
2022/12/28 10:03:55;;;;;;;2.83;2.17;;;;;;;;;;4990199;28;20026;-44
2022/12/28 10:06:24;;;;;;;3.05;2.17;;;;;;;;;;4987444;28;20041;-44
2022/12/28 10:08:56;;;;;;;3.42;2.28;;;;;;;;;;4990267;28;20034;-44
2022/12/28 10:11:26;;;;;;;2.28;2.10;;;;;;;;;;4985787;28;20034;-44
2022/12/28 10:13:57;;;;;;;6.43;2.30;;;;;;;;;;4989754;28;20054;-44
2022/12/28 10:16:26;;;;;;;4.75;2.60;;;;;;;;;;4987044;28;20647;-44
2022/12/28 10:18:52;;;;;;;4.15;2.13;;;;;;;;;;4985995;28;20066;-45
2022/12/28 10:21:21;;;;;;;3.72;2.50;;;;;;;;;;4989055;28;20054;-46
2022/12/28 10:23:52;;;;;;;3.60;2.30;;;;;;;;;;4989679;28;20162;-44
2022/12/28 10:26:19;;;;;;;2.78;2.45;;;;;;;;;;4989993;28;20030;-44
2022/12/28 10:28:53;;;;;;;3.85;2.25;;;;;;;;;;4989269;28;20092;-44
2022/12/28 10:31:32;;;;;;;3.03;2.30;;;;;;;;;;4991659;28;20049;-44
2022/12/28 10:33:58;;;;;;;7.95;2.78;;;;;;;;;;4989168;28;20081;-46
2022/12/28 10:36:23;;;;;;;3.33;2.17;;;;;;;;;;4989177;28;20091;-44
2022/12/28 10:38:55;;;;;;;2.67;2.28;;;;;;;;;;4992532;28;20081;-46
2022/12/28 10:41:20;;;;;;;5.90;2.40;;;;;;;;;;4990565;28;20414;-46
2022/12/28 10:43:52;;;;;;;2.70;2.30;;;;;;;;;;4990602;28;20038;-46
2022/12/28 10:46:24;;;;;;;5.10;2.03;;;;;;;;;;4989063;28;20030;-44
2022/12/28 10:48:51;;;;;;;;;;;;;;;;;;4989478;28;20042;-44
2022/12/28 10:51:19;;;;;;;2.40;2.15;;;;;;;;;;4989599;28;20389;-44
2022/12/28 10:53:48;;;;;;;2.50;2.25;;;;;;;;;;4988071;28;20035;-44
2022/12/28 10:56:13;;;;;;;2.83;2.63;;;;;;;;;;4989932;28;20042;-51
2022/12/28 10:58:40;;;;;;;2.70;2.28;;;;;;;;;;4986226;28;20042;-45
2022/12/28 11:01:11;;;;;;;2.55;2.10;;;;;;;;;;4985530;28;20026;-45
2022/12/28 11:03:40;;;;;;;2.53;1.90;;;;;;;;;;4986084;28;20050;-45
2022/12/28 11:06:25;;;;;;;3.15;2.63;;;;;;;;;;4990221;28;20394;-44
2022/12/28 11:09:14;;;;;;;3.03;2.13;;;;;;;;;;4992580;28;20403;-46
2022/12/28 11:11:41;;;;;;;7.53;3.00;;;;;;;;;;4992015;28;20026;-44
2022/12/28 11:14:28;;;;;;;2.15;1.85;;;;;;;;;;4993697;28;20487;-44
2022/12/28 11:16:54;;;;;;;4.90;2.20;;;;;;;;;;4992943;28;20538;-45
2022/12/28 11:19:20;;;;;;;6.10;1.90;;;;;;;;;;4995019;28;20113;-44
2022/12/28 11:21:46;;;;;;;2.72;2.20;;;;;;;;;;4991911;28;20112;-47
2022/12/28 11:24:16;;;;;;;6.95;2.53;;;;;;;;;;4992985;28;20038;-45
2022/12/28 11:26:45;;;;;;;4.90;2.10;;;;;;;;;;4992152;28;20034;-46
2022/12/28 11:29:13;;;;;;;2.20;2.00;;;;;;;;;;4989783;28;20444;-45
2022/12/28 11:31:45;;;;;;;2.22;1.85;;;;;;;;;;4991288;28;20061;-45
2022/12/28 11:34:17;;;;;;;2.78;2.10;;;;;;;;;;4991546;28;20386;-45
2022/12/28 11:36:43;;;;;;;;;;;;;;;;;;4992416;28;20049;-46
2022/12/28 11:39:26;;;;;;;2.50;1.92;;;;;;;;;;4995485;28;19924;-45
2022/12/28 11:41:53;;;;;;;4.88;2.47;;;;;;;;;;4989965;28;20683;-44
2022/12/28 11:44:43;;;;;;;3.83;1.83;;;;;;;;;;4990063;28;20558;-48
2022/12/28 11:47:14;;;;;;;1.70;1.60;;;;;;;;;;4989703;28;20054;-44
2022/12/28 11:49:40;;;;;;;4.90;1.93;;;;;;;;;;4992363;28;20455;-44
2022/12/28 11:52:26;;;;;;;2.85;1.90;;;;;;;;;;4991268;28;20042;-44
2022/12/28 11:54:54;;;;;;;5.30;2.42;;;;;;;;;;4990148;28;20022;-43
2022/12/28 11:57:53;;;;;;;3.75;2.35;;;;;;;;;;4990214;28;20686;-44
2022/12/28 12:00:18;;;;;;;2.72;2.30;;;;;;;;;;4932395;29;20453;-44
2022/12/28 12:02:55;;;;;;;4.85;2.40;;;;;;;;;;4929924;29;20036;-44
2022/12/28 12:05:35;;;;;;;3.83;2.20;;;;;;;;;;4933160;29;20581;-45
2022/12/28 12:08:10;;;;;;;5.03;2.50;;;;;;;;;;4926898;29;20043;-44
2022/12/28 12:10:38;;;;;;;7.43;3.05;;;;;;;;;;4932164;29;20043;-44
2022/12/28 12:13:25;;;;;;;7.45;3.08;;;;;;;;;;4932353;29;20654;-44
2022/12/28 12:16:17;;;;;;;4.97;3.55;;;;;;;;;;4933504;29;20041;-45
2022/12/28 12:18:50;;;;;;;3.83;3.45;;;;;;;;;;4910272;29;20076;-45
2022/12/28 12:21:35;;;;;;;6.20;4.20;;;;;;;;;;4910756;29;20123;-45
2022/12/28 12:24:25;;;;;;;6.72;3.90;;;;;;;;;;4927321;29;20058;-44
2022/12/28 12:27:15;;;;;;;6.55;3.60;;;;;;;;;;4928352;29;20066;-44
2022/12/28 12:29:44;;;;;;;7.32;3.97;;;;;;;;;;4919871;29;20058;-44
2022/12/28 12:32:29;;;;;;;7.40;3.50;;;;;;;;;;4930001;29;20044;-44
2022/12/28 12:35:03;;;;;;;5.95;3.15;;;;;;;;;;4930006;28;20079;-44
2022/12/28 12:37:44;;;;;;;5.25;3.35;;;;;;;;;;4956451;28;20047;-44
2022/12/28 12:40:31;;;;;;;5.57;3.45;;;;;;;;;;4970390;28;20127;-44
2022/12/28 12:43:21;;;;;;;4.90;3.28;;;;;;;;;;4968076;28;20046;-45
2022/12/28 12:45:46;;;;;;;6.88;3.50;;;;;;;;;;4968968;28;20042;-45
2022/12/28 12:48:41;;;;;;;6.28;3.45;;;;;;;;;;4970356;28;20043;-43
2022/12/28 12:51:25;;;;;;;3.42;3.13;;;;;;;;;;4965972;28;20157;-45
2022/12/28 12:54:00;;;;;;;3.47;2.90;;;;;;;;;;4964079;28;20147;-44
2022/12/28 12:56:38;;;;;;;3.58;2.83;;;;;;;;;;4985428;28;20041;-44
2022/12/28 12:59:41;;;;;;;3.78;3.20;;;;;;;;;;4991039;28;20038;-44
2022/12/28 13:02:25;;;;;;;;;;;;;;;;;;4987323;28;20046;-46
2022/12/28 13:04:51;;;;;;;4.45;2.78;;;;;;;;;;4986346;28;21350;-44
2022/12/28 13:07:22;;;;;;;5.13;3.10;;;;;;;;;;4990949;28;20088;-45
2022/12/28 13:09:50;;;;;;;4.35;2.45;;;;;;;;;;4990661;28;20060;-45
2022/12/28 13:12:17;;;;;;;6.72;3.13;;;;;;;;;;4991097;28;20050;-47
2022/12/28 13:14:45;;;;;;;5.45;3.03;;;;;;;;;;4989274;28;20034;-44
2022/12/28 13:17:17;;;;;;;7.40;3.35;;;;;;;;;;4992681;28;20096;-44
2022/12/28 13:19:43;;;;;;;3.50;2.67;;;;;;;;;;4988915;28;20026;-46
2022/12/28 13:22:29;;;;;;;4.05;2.90;;;;;;;;;;4990610;28;20130;-44
2022/12/28 13:24:54;;;;;;;5.38;3.00;;;;;;;;;;4988467;28;20026;-44
2022/12/28 13:27:21;;;;;;;4.70;2.70;;;;;;;;;;4988563;28;20091;-49
2022/12/28 13:29:52;;;;;;;4.18;3.00;;;;;;;;;;4985540;28;20387;-48
2022/12/28 13:32:28;;;;;;;3.63;2.67;;;;;;;;;;4982321;28;21541;-46
2022/12/28 13:34:53;;;;;;;4.65;3.03;;;;;;;;;;4986417;28;20080;-45
2022/12/28 13:37:20;;;;;;;5.85;3.00;;;;;;;;;;4984317;28;20423;-44
2022/12/28 13:39:46;;;;;;;3.13;2.67;;;;;;;;;;4987198;28;20076;-46
2022/12/28 13:42:18;;;;;;;3.22;2.90;;;;;;;;;;4985888;28;20037;-45
2022/12/28 13:45:02;;;;;;;6.97;3.15;;;;;;;;;;4988176;28;20042;-46
2022/12/28 13:47:41;;;;;;;7.65;3.50;;;;;;;;;;4985308;28;20738;-50
2022/12/28 13:50:13;;;;;;;7.15;3.28;;;;;;;;;;4987302;28;20036;-45
2022/12/28 13:52:40;;;;;;;5.05;3.40;;;;;;;;;;4990089;28;20051;-47
2022/12/28 13:55:11;;;;;;;7.20;3.47;;;;;;;;;;4984808;28;20571;-44
2022/12/28 13:57:38;;;;;;;6.30;3.15;;;;;;;;;;4986102;28;20065;-45
2022/12/28 14:00:05;;;;;;;7.25;3.53;;;;;;;;;;4986739;28;20576;-46
2022/12/28 14:02:32;;;;;;;4.30;2.83;;;;;;;;;;4983534;28;20051;-46
2022/12/28 14:04:58;;;;;;;6.03;3.40;;;;;;;;;;4990510;28;20589;-45
2022/12/28 14:07:27;;;;;;;3.00;2.70;;;;;;;;;;4988375;28;20043;-44
2022/12/28 14:09:53;;;;;;;6.03;3.10;;;;;;;;;;4992498;28;20030;-44
2022/12/28 14:12:19;;;;;;;6.40;3.15;;;;;;;;;;4986384;28;20042;-46
2022/12/28 14:14:45;;;;;;;3.42;3.03;;;;;;;;;;4989656;28;20033;-45
2022/12/28 14:17:11;;;;;;;6.90;2.97;;;;;;;;;;4984762;28;20089;-45
2022/12/28 14:19:37;;;;;;;4.28;3.13;;;;;;;;;;4991672;28;20479;-45
2022/12/28 14:22:33;;;;;;;5.07;3.33;;;;;;;;;;4986567;28;20046;-45
2022/12/28 14:25:09;;;;;;;4.40;3.05;;;;;;;;;;4985758;28;20516;-46
2022/12/28 14:27:38;;;;;;;4.88;3.60;;;;;;;;;;4986628;28;20034;-45
2022/12/28 14:30:24;;;;;;;7.22;4.70;;;;;;;;;;4990514;28;22366;-46
2022/12/28 14:32:50;;;;;;;9.70;3.90;;;;;;;;;;4984429;28;20483;-48
2022/12/28 14:35:22;;;;;;;9.48;4.40;;;;;;;;;;4988411;28;20565;-45
2022/12/28 14:37:57;;;;;;;8.52;4.20;;;;;;;;;;4988284;28;20034;-45
2022/12/28 14:40:32;;;;;;;9.45;3.97;;;;;;;;;;4988461;28;20027;-44
2022/12/28 14:43:02;;;;;;;8.10;3.50;;;;;;;;;;4986994;28;20498;-45
2022/12/28 14:45:35;;;;;;;8.75;4.05;;;;;;;;;;4986698;28;20042;-44
2022/12/28 14:48:01;;;;;;;7.47;3.90;;;;;;;;;;4989457;28;20129;-45
2022/12/28 14:50:30;;;;;;;8.13;4.20;;;;;;;;;;4988706;28;20109;-44
2022/12/28 14:53:15;;;;;;;5.45;4.20;;;;;;;;;;4989674;28;20126;-44
2022/12/28 14:55:59;;;;;;;5.53;3.90;;;;;;;;;;4987572;28;20058;-44
2022/12/28 14:58:46;;;;;;;8.77;4.88;;;;;;;;;;4988249;28;20057;-47
2022/12/28 15:01:12;;;;;;;12.57;6.15;;;;;;;;;;4990361;28;20034;-45
2022/12/28 15:04:00;;;;;;;11.15;4.55;;;;;;;;;;4989027;28;20049;-44
2022/12/28 15:06:28;;;;;;;8.18;4.38;;;;;;;;;;4985746;28;20468;-46
2022/12/28 15:08:57;;;;;;;11.70;5.05;;;;;;;;;;4991795;28;20078;-45
2022/12/28 15:11:24;;;;;;;5.65;4.88;;;;;;;;;;4988153;28;20035;-45
2022/12/28 15:13:50;;;;;;;11.48;4.95;;;;;;;;;;4989673;28;20042;-48
2022/12/28 15:16:17;;;;;;;10.63;6.00;;;;;;;;;;4992828;28;20034;-44
2022/12/28 15:18:43;;;;;;;8.75;5.72;;;;;;;;;;4990723;28;20372;-44
2022/12/28 15:21:18;;;;;;;18.00;6.75;;;;;;;;;;4985312;28;20033;-47
2022/12/28 15:23:54;;;;;;;12.60;7.00;;;;;;;;;;4986707;28;20138;-44
2022/12/28 15:26:22;;;;;;;12.10;7.35;;;;;;;;;;4989489;28;20029;-45
2022/12/28 15:28:48;;;;;;;13.18;7.32;;;;;;;;;;4989207;28;20049;-48